Time;durP1;ratioP1;P1;durP2;ratioP2;P2;SDS_P1;SDS_P2;PMS_P1;PMS_P2;Temp;Humidity;BMP_temperature;BMP_pressure;BME280_temperature;BME280_humidity;BME280_pressure;Samples;Min_cycle;Max_cycle;Signal;HPM_P1;HPM_P2
2022/06/30 00:02:06;;;;;;;5.75;2.30;;;;;;;5.96;100.00;100472.56;5040848;28;20022;-78
2022/06/30 00:04:31;;;;;;;5.20;2.28;;;;;;;6.05;100.00;100494.81;5026067;28;22196;-80
2022/06/30 00:06:57;;;;;;;6.68;2.47;;;;;;;6.03;100.00;100492.28;5020580;28;20025;-77
2022/06/30 00:09:23;;;;;;;5.90;2.20;;;;;;;6.06;100.00;100496.50;5020096;28;20044;-79
2022/06/30 00:11:48;;;;;;;4.68;2.28;;;;;;;6.11;100.00;100505.75;5002963;28;20044;-78
2022/06/30 00:14:14;;;;;;;4.97;2.33;;;;;;;6.13;100.00;100503.75;5024061;28;20041;-78
2022/06/30 00:16:40;;;;;;;4.15;2.28;;;;;;;6.15;100.00;100506.28;5043015;28;20037;-77
2022/06/30 00:19:05;;;;;;;5.40;2.03;;;;;;;6.07;100.00;100501.69;5006467;28;20132;-77
2022/06/30 00:21:31;;;;;;;5.13;2.08;;;;;;;6.00;100.00;100497.94;5010300;28;20071;-77
2022/06/30 00:23:57;;;;;;;7.93;3.10;;;;;;;5.89;100.00;100490.16;5023419;28;20112;-76
2022/06/30 00:26:22;;;;;;;8.15;3.03;;;;;;;5.91;100.00;100490.84;5022646;28;20032;-78
2022/06/30 00:28:48;;;;;;;10.75;4.13;;;;;;;5.87;100.00;100492.94;5034958;28;20470;-77
2022/06/30 00:31:13;;;;;;;9.23;4.80;;;;;;;5.85;100.00;100488.78;5023524;28;20033;-78
2022/06/30 00:33:39;;;;;;;12.05;4.57;;;;;;;5.90;100.00;100482.00;5037293;28;20040;-77
2022/06/30 00:36:07;;;;;;;8.57;4.80;;;;;;;5.88;100.00;100488.47;5007558;28;20033;-77
2022/06/30 00:38:33;;;;;;;10.10;3.88;;;;;;;5.84;100.00;100493.25;5034291;28;20458;-75
2022/06/30 00:40:58;;;;;;;8.93;4.15;;;;;;;5.86;100.00;100485.13;5030652;28;20031;-76
2022/06/30 00:43:24;;;;;;;10.40;3.67;;;;;;;5.85;100.00;100488.78;5011666;28;20033;-76
2022/06/30 00:45:50;;;;;;;8.35;3.25;;;;;;;5.82;100.00;100478.38;5043224;28;20040;-76
2022/06/30 00:48:17;;;;;;;7.07;2.97;;;;;;;5.80;100.00;100483.91;5039210;28;20036;-78
2022/06/30 00:50:46;;;;;;;5.68;2.35;;;;;;;5.78;100.00;100487.69;5022429;28;20033;-75
2022/06/30 00:53:12;;;;;;;4.80;2.20;;;;;;;5.76;100.00;100490.50;5058954;28;20036;-76
2022/06/30 00:55:38;;;;;;;6.53;2.67;;;;;;;5.44;100.00;100448.34;5039092;28;20098;-76
2022/06/30 00:58:08;;;;;;;11.30;3.38;;;;;;;5.56;100.00;100484.47;5009847;28;20041;-76
2022/06/30 01:00:41;;;;;;;7.63;3.55;;;;;;;5.55;100.00;100477.44;5012109;28;22242;-77
2022/06/30 01:03:07;;;;;;;10.82;3.97;;;;;;;5.50;100.00;100485.94;5014349;28;20037;-78
2022/06/30 01:05:33;;;;;;;6.65;2.95;;;;;;;5.43;100.00;100468.00;5028239;28;20037;-76
2022/06/30 01:08:00;;;;;;;10.27;3.42;;;;;;;5.61;100.00;100489.34;5046173;28;20107;-76
2022/06/30 01:13:10;;;;;;;5.90;3.45;;;;;;;5.73;100.00;100483.66;5036582;28;20037;-76
2022/06/30 01:15:36;;;;;;;6.55;2.97;;;;;;;5.75;100.00;100477.34;5038543;28;20040;-76
2022/06/30 01:18:01;;;;;;;9.13;3.10;;;;;;;5.82;100.00;100484.59;5042078;28;20043;-78
2022/06/30 01:20:32;;;;;;;6.50;3.33;;;;;;;5.69;100.00;100474.28;5034195;28;20131;-79
2022/06/30 01:22:59;;;;;;;7.85;3.38;;;;;;;5.72;100.00;100484.66;5015612;28;20381;-78
2022/06/30 01:25:25;;;;;;;10.40;3.13;;;;;;;5.67;100.00;100486.94;5027011;28;20040;-78
2022/06/30 01:27:52;;;;;;;9.90;2.95;;;;;;;5.71;100.00;100493.63;5039578;28;20033;-78
2022/06/30 01:30:17;;;;;;;12.18;3.42;;;;;;;5.80;100.00;100491.06;5003113;28;20111;-78
2022/06/30 01:32:43;;;;;;;8.07;3.53;;;;;;;5.89;100.00;100488.31;5025257;28;20077;-78
2022/06/30 01:35:09;;;;;;;6.90;3.63;;;;;;;6.06;100.00;100492.00;5026478;28;20032;-77
2022/06/30 01:37:55;;;;;;;6.05;2.70;;;;;;;6.21;100.00;100494.97;5026156;28;20945;-77
2022/06/30 01:40:23;;;;;;;10.93;3.40;;;;;;;6.30;100.00;100486.03;5021866;28;20124;-78
2022/06/30 01:42:48;;;;;;;7.90;3.75;;;;;;;6.43;100.00;100485.66;5039148;28;21006;-78
2022/06/30 01:45:15;;;;;;;21.85;4.97;;;;;;;6.53;100.00;100485.53;5037019;28;20083;-78
2022/06/30 01:47:40;;;;;;;11.70;3.70;;;;;;;6.70;100.00;100495.34;5028062;28;20052;-77
2022/06/30 01:50:11;;;;;;;8.95;3.42;;;;;;;6.82;100.00;100501.25;5039249;28;20474;-77
2022/06/30 01:52:37;;;;;;;8.85;3.70;;;;;;;6.91;100.00;100492.31;5007978;28;20397;-79
2022/06/30 01:55:03;;;;;;;12.27;3.58;;;;;;;6.99;100.00;100473.63;5013314;28;20037;-77
2022/06/30 01:57:29;;;;;;;10.05;4.45;;;;;;;7.30;100.00;100497.16;5026121;28;20094;-77
2022/06/30 01:59:55;;;;;;;10.52;4.22;;;;;;;7.34;100.00;100477.13;5036252;28;20037;-77
2022/06/30 02:02:20;;;;;;;10.65;3.97;;;;;;;7.55;100.00;100489.22;5030893;28;20057;-78
2022/06/30 02:04:51;;;;;;;7.88;3.30;;;;;;;7.56;100.00;100482.88;5012392;28;20044;-77
2022/06/30 02:07:21;;;;;;;10.98;4.43;;;;;;;7.57;100.00;100493.41;5027310;28;20042;-77
2022/06/30 02:09:50;;;;;;;9.68;3.70;;;;;;;7.47;100.00;100482.84;5011990;28;20112;-77
2022/06/30 02:15:02;;;;;;;8.18;3.78;;;;;;;7.46;100.00;100491.88;5046170;28;20029;-77
2022/06/30 02:17:27;;;;;;;8.20;3.80;;;;;;;7.51;100.00;100494.06;5027294;28;20159;-78
2022/06/30 02:19:53;;;;;;;8.07;3.90;;;;;;;7.48;100.00;100491.69;5039823;28;20119;-77
2022/06/30 02:22:19;;;;;;;7.57;3.13;;;;;;;7.35;100.00;100478.78;5028764;28;20033;-77
2022/06/30 02:24:44;;;;;;;5.32;2.85;;;;;;;7.38;100.00;100486.50;5004624;28;20032;-77
2022/06/30 02:27:10;;;;;;;8.77;2.83;;;;;;;7.39;100.00;100485.50;5009118;28;20371;-77
2022/06/30 02:29:36;;;;;;;8.25;2.70;;;;;;;7.39;100.00;100485.50;5032789;28;20111;-77
2022/06/30 02:32:01;;;;;;;8.15;2.90;;;;;;;7.45;100.00;100492.03;5012331;28;20045;-77
2022/06/30 02:34:28;;;;;;;5.63;2.30;;;;;;;7.46;100.00;100483.84;5029290;28;20044;-78
2022/06/30 02:36:55;;;;;;;5.22;2.95;;;;;;;7.23;100.00;100445.31;5026927;28;20044;-77
2022/06/30 02:39:23;;;;;;;9.65;3.00;;;;;;;7.51;100.00;100490.53;5029966;28;20048;-77
2022/06/30 02:41:49;;;;;;;7.07;2.85;;;;;;;7.52;100.00;100479.69;5009839;28;20042;-77
2022/06/30 02:44:15;;;;;;;8.13;2.90;;;;;;;7.56;100.00;100490.88;5009796;28;20041;-77
2022/06/30 02:46:41;;;;;;;9.38;3.13;;;;;;;7.53;100.00;100485.88;5027412;28;20106;-77
2022/06/30 02:49:06;;;;;;;6.60;2.88;;;;;;;7.55;100.00;100489.22;5010024;28;20188;-77
2022/06/30 02:51:32;;;;;;;10.50;3.10;;;;;;;7.50;100.00;100484.34;5027847;28;20478;-77
2022/06/30 02:53:58;;;;;;;12.02;3.17;;;;;;;7.54;100.00;100491.06;5025735;28;20057;-78
2022/06/30 02:56:23;;;;;;;7.72;3.33;;;;;;;7.59;100.00;100490.56;5033343;28;20029;-77
2022/06/30 02:58:49;;;;;;;9.00;2.72;;;;;;;7.58;100.00;100491.56;5027042;28;20037;-77
2022/06/30 03:01:15;;;;;;;10.93;3.22;;;;;;;7.56;100.00;100486.38;5023506;28;20033;-77
2022/06/30 03:03:41;;;;;;;4.93;2.58;;;;;;;7.51;100.00;100480.66;5036012;28;20500;-77
2022/06/30 03:06:07;;;;;;;5.63;2.83;;;;;;;7.45;100.00;100487.50;5045019;28;20037;-78
2022/06/30 03:08:32;;;;;;;8.80;3.30;;;;;;;7.46;100.00;100486.53;5027824;28;20073;-77
2022/06/30 03:10:58;;;;;;;7.05;3.00;;;;;;;7.52;100.00;100495.75;5018623;28;20033;-77
2022/06/30 03:13:24;;;;;;;6.57;2.78;;;;;;;7.59;100.00;100490.56;5010158;28;20033;-77
2022/06/30 03:15:50;;;;;;;6.63;2.40;;;;;;;7.55;100.00;100475.84;5009870;28;20147;-77
2022/06/30 03:18:16;;;;;;;8.70;3.20;;;;;;;7.71;100.00;100487.41;5042937;28;20493;-76
2022/06/30 03:20:41;;;;;;;7.03;3.13;;;;;;;7.78;100.00;100490.28;5027879;28;20111;-77
2022/06/30 03:23:07;;;;;;;7.57;3.10;;;;;;;7.81;100.00;100486.44;5026026;28;20041;-76
2022/06/30 03:25:33;;;;;;;11.10;3.00;;;;;;;7.83;100.00;100479.06;5008875;28;20110;-77
2022/06/30 03:27:59;;;;;;;8.88;3.30;;;;;;;7.86;100.00;100484.94;5039770;28;20025;-78
2022/06/30 03:30:25;;;;;;;11.45;3.50;;;;;;;7.83;100.00;100484.44;5027328;28;20482;-77
2022/06/30 03:32:51;;;;;;;10.70;3.00;;;;;;;7.86;100.00;100486.81;5024177;28;20025;-77
2022/06/30 03:35:17;;;;;;;7.13;2.97;;;;;;;7.91;100.00;100484.44;5042524;28;20519;-78
2022/06/30 03:37:43;;;;;;;9.93;3.33;;;;;;;7.97;100.00;100489.16;5030508;28;20068;-79
2022/06/30 03:40:10;;;;;;;7.18;2.53;;;;;;;8.08;100.00;100498.69;5022695;28;20036;-79
2022/06/30 03:42:35;;;;;;;7.45;3.45;;;;;;;8.15;100.00;100495.19;5027701;28;20033;-77
2022/06/30 03:45:01;;;;;;;10.15;3.63;;;;;;;8.26;100.00;100487.84;5010266;28;20044;-77
2022/06/30 03:47:27;;;;;;;7.03;3.25;;;;;;;8.31;100.00;100490.84;5023870;28;20049;-78
2022/06/30 03:49:52;;;;;;;9.43;3.08;;;;;;;8.42;100.00;100497.75;5030079;28;20033;-79
2022/06/30 03:52:18;;;;;;;8.45;3.33;;;;;;;8.46;100.00;100493.72;5041730;28;20049;-76
2022/06/30 03:54:46;;;;;;;12.73;2.92;;;;;;;8.45;100.00;100492.88;5028184;28;20035;-77
2022/06/30 03:57:12;;;;;;;8.18;3.30;;;;;;;8.52;100.00;100498.38;5021406;28;20033;-79
2022/06/30 03:59:37;;;;;;;6.82;3.30;;;;;;;8.53;100.00;100497.41;5032654;28;20041;-77
2022/06/30 04:02:04;;;;;;;6.97;3.10;;;;;;;8.55;100.00;100501.59;5023607;28;20045;-76
2022/06/30 04:04:30;;;;;;;8.02;2.88;;;;;;;8.52;100.00;100504.59;5020733;28;20033;-76
2022/06/30 04:06:55;;;;;;;8.50;3.08;;;;;;;8.41;100.00;100494.19;5038464;28;20045;-76
2022/06/30 04:09:21;;;;;;;7.30;2.45;;;;;;;8.38;100.00;100495.34;5023700;28;20082;-76
2022/06/30 04:11:46;;;;;;;6.78;3.35;;;;;;;8.43;100.00;100504.75;5026147;28;20506;-77
2022/06/30 04:14:12;;;;;;;7.88;3.30;;;;;;;8.43;100.00;100504.75;5012452;28;20033;-76
2022/06/30 04:16:37;;;;;;;7.60;2.85;;;;;;;8.37;100.00;100501.72;5029892;28;20393;-77
2022/06/30 04:19:03;;;;;;;6.88;2.92;;;;;;;8.38;100.00;100503.38;5030609;28;20048;-77
2022/06/30 04:21:29;;;;;;;5.47;2.78;;;;;;;8.45;100.00;100513.47;5043861;28;20028;-77
2022/06/30 04:23:54;;;;;;;7.00;2.70;;;;;;;8.44;100.00;100503.75;5029575;28;20029;-76
2022/06/30 04:26:20;;;;;;;12.95;3.25;;;;;;;8.47;100.00;100511.47;5030025;28;20034;-76
2022/06/30 04:28:45;;;;;;;7.45;3.03;;;;;;;8.47;100.00;100512.31;5031129;28;20493;-76
2022/06/30 04:33:55;;;;;;;8.73;2.88;;;;;;;8.48;100.00;100518.50;5045978;28;20053;-76
2022/06/30 04:36:21;;;;;;;6.30;2.80;;;;;;;8.48;100.00;100515.81;5026253;28;20111;-76
2022/06/30 04:38:46;;;;;;;11.13;3.55;;;;;;;8.42;100.00;100511.16;5024092;28;20032;-76
2022/06/30 04:41:24;;;;;;;9.18;2.90;;;;;;;8.42;100.00;100508.47;5039380;28;20040;-77
2022/06/30 04:43:54;;;;;;;9.55;2.50;;;;;;;8.39;100.00;100512.31;5022321;28;20044;-77
2022/06/30 04:46:20;;;;;;;5.35;2.88;;;;;;;8.37;100.00;100509.75;5020764;28;20102;-77
2022/06/30 04:48:48;;;;;;;7.97;3.40;;;;;;;8.40;100.00;100515.81;5021262;28;20474;-77
2022/06/30 04:51:13;;;;;;;7.82;2.90;;;;;;;8.43;100.00;100512.81;5009767;28;20072;-77
2022/06/30 04:53:40;;;;;;;6.22;2.97;;;;;;;8.51;100.00;100521.66;5040691;28;20498;-77
2022/06/30 04:56:06;;;;;;;8.95;3.10;;;;;;;8.61;100.00;100518.81;5033863;28;20037;-76
2022/06/30 04:58:34;;;;;;;14.00;3.38;;;;;;;8.72;100.00;100520.31;5034404;28;20063;-76
2022/06/30 05:01:01;;;;;;;15.02;3.92;;;;;;;8.87;100.00;100525.84;5014293;28;20490;-76
2022/06/30 05:03:27;;;;;;;9.63;3.45;;;;;;;8.98;100.00;100520.09;5032268;28;20033;-76
2022/06/30 05:05:53;;;;;;;7.32;3.08;;;;;;;9.12;100.00;100516.72;5050964;28;20066;-77
2022/06/30 05:08:19;;;;;;;7.68;3.28;;;;;;;9.19;100.00;100516.88;5042796;28;20037;-76
2022/06/30 05:10:44;;;;;;;9.15;3.30;;;;;;;9.28;100.00;100517.66;5042808;28;20478;-76
2022/06/30 05:13:10;;;;;;;7.90;2.90;;;;;;;9.34;100.00;100516.97;5016666;28;20735;-77
2022/06/30 05:15:36;;;;;;;12.38;3.47;;;;;;;9.40;100.00;100513.59;5045276;28;20033;-77
2022/06/30 05:18:01;;;;;;;9.88;2.90;;;;;;;9.50;100.00;100516.06;5014607;28;20035;-77
2022/06/30 05:20:27;;;;;;;10.15;3.08;;;;;;;9.55;100.00;100511.88;5026883;28;20052;-76
2022/06/30 05:22:55;;;;;;;8.73;3.28;;;;;;;9.74;100.00;100533.91;5031958;28;20033;-78
2022/06/30 05:28:06;;;;;;;11.15;3.08;;;;;;;9.88;100.00;100530.47;5041136;28;20175;-77
2022/06/30 05:30:32;;;;;;;8.07;3.40;;;;;;;9.92;100.00;100531.78;5031589;28;20037;-77
2022/06/30 05:32:58;;;;;;;11.43;3.35;;;;;;;9.92;100.00;100521.03;5032664;28;20401;-76
2022/06/30 05:35:23;;;;;;;8.55;2.95;;;;;;;10.05;100.00;100529.34;5029111;28;20033;-77
2022/06/30 05:37:49;;;;;;;9.63;3.38;;;;;;;10.06;100.00;100531.03;5043474;28;20064;-77
2022/06/30 05:40:14;;;;;;;8.85;3.10;;;;;;;9.94;100.00;100504.75;5027571;28;20474;-76
2022/06/30 05:42:40;;;;;;;8.75;3.72;;;;;;;10.18;100.00;100523.38;5016822;28;20033;-76
2022/06/30 05:45:06;;;;;;;14.27;2.90;;;;;;;10.28;100.00;100531.25;5036495;28;20026;-78
2022/06/30 05:47:32;;;;;;;7.82;3.03;;;;;;;10.41;100.00;100536.03;5039862;28;20056;-76
2022/06/30 05:49:57;;;;;;;8.00;3.20;;;;;;;10.53;100.00;100540.81;5028527;28;20041;-76
2022/06/30 05:52:23;;;;;;;7.95;2.80;;;;;;;10.64;100.00;100534.16;5046221;28;20029;-76
2022/06/30 05:54:49;;;;;;;6.38;2.78;;;;;;;10.72;100.00;100531.38;5042260;28;20043;-77
2022/06/30 05:57:14;;;;;;;9.18;2.83;;;;;;;10.84;100.00;100531.75;5041655;28;20401;-76
2022/06/30 05:59:43;;;;;;;7.57;3.13;;;;;;;10.98;100.00;100524.72;5029847;28;20037;-76
2022/06/30 06:02:09;;;;;;;10.40;3.00;;;;;;;11.04;100.00;100534.78;5030444;28;20528;-77
2022/06/30 06:04:34;;;;;;;11.30;2.65;;;;;;;11.05;100.00;100522.16;5043499;28;20410;-77
2022/06/30 06:07:02;;;;;;;7.72;2.40;;;;;;;11.13;100.00;100527.44;5015652;28;20462;-77
2022/06/30 06:09:29;;;;;;;5.93;3.05;;;;;;;11.21;100.00;100538.94;5050196;28;20025;-77
2022/06/30 06:11:55;;;;;;;9.55;3.00;;;;;;;11.34;100.00;100540.16;5015369;28;20029;-78
2022/06/30 06:14:21;;;;;;;11.07;3.22;;;;;;;11.41;100.00;100535.72;5017174;28;20040;-78
2022/06/30 06:16:47;;;;;;;9.02;2.72;;;;;;;11.56;100.00;100543.75;5055302;28;20028;-76
2022/06/30 06:19:12;;;;;;;6.38;2.55;;;;;;;11.64;100.00;100555.28;5039017;28;20037;-77
2022/06/30 06:21:40;;;;;;;6.28;2.92;;;;;;;11.65;100.00;100542.63;5040813;28;20095;-76
2022/06/30 06:24:06;;;;;;;6.93;2.60;;;;;;;11.73;100.00;100549.78;5012740;28;20034;-77
2022/06/30 06:26:31;;;;;;;8.75;3.10;;;;;;;11.82;100.00;100549.47;5025510;28;20049;-76
2022/06/30 06:29:06;;;;;;;8.90;3.53;;;;;;;11.92;100.00;100553.75;5022954;28;20037;-77
2022/06/30 06:31:33;;;;;;;7.43;3.13;;;;;;;11.99;100.00;100543.91;5011884;28;20033;-77
2022/06/30 06:34:00;;;;;;;11.05;3.03;;;;;;;12.16;100.00;100553.41;5023147;28;20101;-76
2022/06/30 06:36:26;;;;;;;6.85;2.85;;;;;;;12.28;100.00;100554.59;5025476;28;20041;-77
2022/06/30 06:38:52;;;;;;;8.70;3.08;;;;;;;12.37;100.00;100567.94;5021097;28;20033;-77
2022/06/30 06:41:23;;;;;;;8.55;3.10;;;;;;;12.48;100.00;100562.03;5044979;28;20104;-77
2022/06/30 06:44:02;;;;;;;7.57;2.92;;;;;;;12.59;100.00;100557.97;5030039;28;20603;-76
2022/06/30 06:46:28;;;;;;;13.00;3.10;;;;;;;12.76;100.00;100565.59;5044219;28;20030;-76
2022/06/30 06:48:55;;;;;;;6.82;2.80;;;;;;;12.91;100.00;100564.66;5042081;28;20059;-80
2022/06/30 06:51:39;;;;;;;14.15;2.72;;;;;;;13.08;100.00;100570.63;5041790;28;20576;-79
2022/06/30 06:54:13;;;;;;;5.78;2.53;;;;;;;13.24;100.00;100575.72;5026810;28;20483;-77
2022/06/30 06:56:39;;;;;;;7.70;2.40;;;;;;;13.43;100.00;100579.59;5043102;28;20102;-78
2022/06/30 06:59:07;;;;;;;9.10;2.40;;;;;;;13.67;100.00;100577.44;5022559;28;20437;-78
2022/06/30 07:01:33;;;;;;;4.50;1.90;;;;;;;13.84;100.00;100568.78;5014924;28;20118;-78
2022/06/30 07:03:58;;;;;;;7.03;2.35;;;;;;;14.07;100.00;100571.13;5051555;28;20112;-77
2022/06/30 07:06:24;;;;;;;4.97;2.17;;;;;;;14.20;100.00;100564.94;5006734;28;20084;-76
2022/06/30 07:08:50;;;;;;;10.07;2.83;;;;;;;14.52;100.00;100581.44;5025036;28;20025;-76
2022/06/30 07:11:16;;;;;;;4.18;2.28;;;;;;;14.86;100.00;100575.03;5042450;28;20672;-77
2022/06/30 07:13:41;;;;;;;6.65;2.75;;;;;;;15.14;98.06;100579.41;5031477;28;20048;-76
2022/06/30 07:16:07;;;;;;;8.52;3.08;;;;;;;15.43;92.83;100552.88;5011246;28;20292;-76
2022/06/30 07:18:33;;;;;;;8.85;2.67;;;;;;;15.82;93.17;100569.03;5011466;28;20071;-76
2022/06/30 07:20:58;;;;;;;9.02;2.75;;;;;;;16.24;90.09;100574.88;5042158;28;20041;-77
2022/06/30 07:23:24;;;;;;;5.32;2.20;;;;;;;16.80;86.31;100580.56;5022323;28;20037;-78
2022/06/30 07:25:50;;;;;;;8.70;3.38;;;;;;;17.14;82.83;100582.78;5040432;28;20505;-78
2022/06/30 07:28:15;;;;;;;10.25;2.78;;;;;;;17.38;80.01;100582.97;5039047;28;20040;-78
2022/06/30 07:30:41;;;;;;;5.30;2.08;;;;;;;18.10;78.50;100576.91;5028678;28;20128;-78
2022/06/30 07:33:06;;;;;;;4.70;2.33;;;;;;;19.11;71.82;100591.53;5026275;28;20945;-77
2022/06/30 07:35:34;;;;;;;6.43;2.20;;;;;;;19.70;65.45;100578.69;5054641;28;20033;-77
2022/06/30 07:38:03;;;;;;;8.70;2.70;;;;;;;19.73;67.45;100580.94;5003943;28;20033;-79
2022/06/30 07:40:28;;;;;;;6.65;2.42;;;;;;;20.48;65.75;100581.88;5044120;28;20083;-78
2022/06/30 07:42:55;;;;;;;7.25;2.15;;;;;;;20.30;66.27;100588.34;5024781;28;20043;-78
2022/06/30 07:45:24;;;;;;;4.75;2.08;;;;;;;20.15;63.38;100579.88;5045615;28;20481;-78
2022/06/30 07:47:51;;;;;;;8.30;1.90;;;;;;;20.05;61.22;100574.22;5029913;28;20040;-77
2022/06/30 07:50:19;;;;;;;6.38;1.90;;;;;;;19.86;62.01;100577.13;5022262;28;20036;-78
2022/06/30 07:52:46;;;;;;;9.45;1.77;;;;;;;20.10;61.44;100586.06;5043924;28;20079;-77
2022/06/30 07:55:12;;;;;;;9.27;1.95;;;;;;;20.13;60.10;100587.47;5010259;28;20037;-77
2022/06/30 07:57:42;;;;;;;5.78;1.67;;;;;;;19.48;59.94;100591.28;5026567;28;20108;-77
2022/06/30 08:00:10;;;;;;;3.58;1.48;;;;;;;20.15;55.35;100596.25;5032908;28;20021;-77
2022/06/30 08:02:36;;;;;;;7.47;2.30;;;;;;;20.05;55.05;100588.69;5021263;28;20036;-77
2022/06/30 08:05:02;;;;;;;5.50;2.05;;;;;;;20.93;52.40;100591.09;5012460;28;20512;-77
2022/06/30 08:07:28;;;;;;;5.93;1.60;;;;;;;20.97;52.32;100597.75;5028880;28;20029;-78
2022/06/30 08:09:53;;;;;;;3.42;1.33;;;;;;;20.79;51.49;100596.91;5019522;28;20055;-78
2022/06/30 08:12:19;;;;;;;2.92;1.85;;;;;;;20.75;52.44;100594.94;5005785;28;20065;-78
2022/06/30 08:14:46;;;;;;;4.07;1.48;;;;;;;21.73;51.37;100596.16;5029309;28;20123;-77
2022/06/30 08:17:12;;;;;;;4.90;1.55;;;;;;;22.93;45.52;100592.50;5020137;28;20414;-78
2022/06/30 08:19:37;;;;;;;4.55;1.92;;;;;;;24.40;41.73;100589.97;5019254;28;20029;-78
2022/06/30 08:22:03;;;;;;;2.88;1.50;;;;;;;25.77;39.42;100589.06;5036282;28;20476;-78
2022/06/30 08:24:29;;;;;;;4.82;1.55;;;;;;;25.29;37.93;100602.41;5022836;28;20037;-76
2022/06/30 08:26:58;;;;;;;3.80;1.50;;;;;;;25.44;38.32;100594.13;5047909;28;20029;-79
2022/06/30 08:29:24;;;;;;;3.70;1.63;;;;;;;25.49;37.65;100600.75;5037066;28;20134;-80
2022/06/30 08:31:50;;;;;;;4.13;1.65;;;;;;;26.58;34.13;100583.44;5013590;28;20047;-80
2022/06/30 08:34:15;;;;;;;3.67;1.10;;;;;;;23.82;38.64;100590.09;5030679;28;20462;-79
2022/06/30 08:36:41;;;;;;;6.57;2.20;;;;;;;24.09;39.64;100592.66;5013606;28;20025;-80
2022/06/30 08:42:02;;;;;;;5.22;1.83;;;;;;;25.84;37.82;100584.09;5027940;28;20111;-81
2022/06/30 08:42:02;;;;;;;4.78;2.03;;;;;;;28.92;32.36;100593.66;5039432;28;20091;-79
2022/06/30 08:44:33;;;;;;;2.95;1.15;;;;;;;26.38;33.58;100576.09;5031439;28;20036;-80
2022/06/30 08:46:59;;;;;;;5.32;1.85;;;;;;;23.91;37.92;100596.69;5048961;28;20405;-80
2022/06/30 08:49:25;;;;;;;5.03;1.55;;;;;;;21.83;41.57;100562.63;5050268;28;20037;-81
2022/06/30 08:51:52;;;;;;;5.28;1.70;;;;;;;20.86;45.92;100585.81;5011074;28;20510;-79
2022/06/30 08:54:19;;;;;;;3.13;1.30;;;;;;;20.11;47.88;100595.06;5032296;28;20032;-80
2022/06/30 08:56:46;;;;;;;4.03;1.17;;;;;;;19.64;49.60;100596.00;5013812;28;20033;-80
2022/06/30 08:59:11;;;;;;;3.70;1.55;;;;;;;19.15;50.73;100581.81;5014856;28;20032;-82
2022/06/30 09:01:39;;;;;;;2.95;1.33;;;;;;;19.01;50.95;100603.00;5040555;28;20055;-78
2022/06/30 09:04:07;;;;;;;5.63;1.60;;;;;;;18.61;52.39;100581.00;5037642;28;20044;-78
2022/06/30 09:06:32;;;;;;;3.38;1.30;;;;;;;18.64;53.25;100602.31;5041507;28;20062;-77
2022/06/30 09:08:58;;;;;;;3.88;1.40;;;;;;;18.63;53.90;100608.84;5047901;28;20029;-77
2022/06/30 09:11:43;;;;;;;3.42;1.33;;;;;;;18.80;53.71;100612.56;5013664;28;20045;-77
2022/06/30 09:14:09;;;;;;;2.90;1.40;;;;;;;19.02;52.04;100604.66;5026695;28;20094;-77
2022/06/30 09:16:36;;;;;;;3.10;1.10;;;;;;;19.35;52.08;100605.16;5040207;28;20033;-77
2022/06/30 09:19:03;;;;;;;2.78;1.30;;;;;;;19.65;51.14;100610.47;5031641;28;20707;-77
2022/06/30 09:21:28;;;;;;;5.20;1.63;;;;;;;19.76;50.08;100604.19;5049441;28;20070;-77
2022/06/30 09:23:54;;;;;;;5.95;1.58;;;;;;;20.00;49.38;100604.94;5015292;28;20056;-77
2022/06/30 09:26:22;;;;;;;5.35;1.55;;;;;;;20.24;49.18;100607.59;5008229;28;20052;-76
2022/06/30 09:28:55;;;;;;;3.58;1.45;;;;;;;20.45;47.81;100597.91;5024982;28;20045;-77
2022/06/30 09:31:32;;;;;;;4.88;1.58;;;;;;;20.76;46.08;100604.78;5008479;28;20417;-75
2022/06/30 09:34:11;;;;;;;5.43;1.30;;;;;;;20.67;46.79;100600.78;5049383;28;20279;-77
2022/06/30 09:36:38;;;;;;;3.80;1.13;;;;;;;20.35;47.63;100602.09;5018211;28;20036;-76
2022/06/30 09:39:06;;;;;;;4.50;1.73;;;;;;;19.86;48.79;100609.88;5043721;28;20037;-77
2022/06/30 09:41:35;;;;;;;4.65;1.40;;;;;;;19.42;50.56;100612.13;5008976;28;20057;-77
2022/06/30 09:44:05;;;;;;;4.32;1.38;;;;;;;19.27;50.91;100614.53;5009988;28;20040;-76
2022/06/30 09:46:30;;;;;;;4.97;1.30;;;;;;;19.13;52.13;100597.56;5059228;28;20087;-76
2022/06/30 09:48:56;;;;;;;6.05;1.55;;;;;;;19.26;52.50;100610.13;5029710;28;20549;-76
2022/06/30 09:51:22;;;;;;;3.58;1.60;;;;;;;19.22;52.84;100615.22;5032979;28;20029;-82
2022/06/30 09:54:05;;;;;;;4.82;1.50;;;;;;;19.23;54.29;100611.44;5044810;28;20043;-79
2022/06/30 09:56:30;;;;;;;5.13;1.50;;;;;;;19.27;54.13;100596.28;5047100;28;20025;-78
2022/06/30 09:58:56;;;;;;;3.33;1.50;;;;;;;19.36;54.11;100617.72;5048992;28;20098;-79
2022/06/30 10:01:21;;;;;;;4.70;1.50;;;;;;;19.47;51.87;100600.53;5045265;28;20040;-79
2022/06/30 10:03:59;;;;;;;4.55;1.40;;;;;;;20.07;47.92;100602.91;5032668;28;20057;-78
2022/06/30 10:06:25;;;;;;;1.65;1.00;;;;;;;20.19;47.73;100614.63;5013817;28;20033;-80
2022/06/30 10:08:53;;;;;;;4.40;1.80;;;;;;;23.99;41.51;100620.06;5042219;28;20025;-79
2022/06/30 10:11:19;;;;;;;5.90;2.22;;;;;;;26.67;37.17;100612.88;5013812;28;20124;-80
2022/06/30 10:13:46;;;;;;;4.30;1.58;;;;;;;28.43;32.33;100617.13;5033345;28;20115;-80
2022/06/30 10:16:12;;;;;;;4.55;2.13;;;;;;;29.19;30.75;100581.03;5025858;28;20386;-80
2022/06/30 10:18:39;;;;;;;4.72;1.38;;;;;;;26.76;33.93;100591.03;5011101;28;20033;-79
2022/06/30 10:21:05;;;;;;;4.32;1.40;;;;;;;24.05;37.43;100611.56;5020855;28;20025;-80
2022/06/30 10:23:32;;;;;;;5.20;1.58;;;;;;;21.87;41.28;100621.22;5017728;28;20029;-80
2022/06/30 10:25:58;;;;;;;4.15;1.25;;;;;;;20.38;46.26;100617.19;5029089;28;20041;-81
2022/06/30 10:28:27;;;;;;;5.03;1.27;;;;;;;19.21;49.47;100616.31;5019866;28;20510;-79
2022/06/30 10:31:16;;;;;;;3.33;1.20;;;;;;;18.15;52.91;100618.72;5021146;28;20048;-79
2022/06/30 10:33:48;;;;;;;7.30;2.08;;;;;;;17.13;58.78;100638.19;5029932;28;20036;-80
2022/06/30 10:36:25;;;;;;;7.00;1.65;;;;;;;16.40;63.73;100629.69;5034095;28;20037;-79
2022/06/30 10:38:57;;;;;;;5.80;1.83;;;;;;;16.05;66.29;100636.31;5048791;28;20045;-79
2022/06/30 10:41:24;;;;;;;8.50;2.05;;;;;;;15.89;68.34;100633.25;5012377;28;20035;-79
2022/06/30 10:44:05;;;;;;;3.55;1.33;;;;;;;15.93;67.99;100613.63;5015763;28;20060;-79
2022/06/30 10:46:32;;;;;;;5.03;3.08;;;;;;;16.26;66.17;100629.75;5041338;28;20116;-80
2022/06/30 10:48:58;;;;;;;7.43;1.65;;;;;;;16.59;64.90;100626.03;5028798;28;20047;-80
2022/06/30 10:51:25;;;;;;;3.65;1.60;;;;;;;16.88;63.97;100616.44;5046661;28;20033;-80
2022/06/30 10:53:54;;;;;;;8.98;1.55;;;;;;;17.14;63.47;100609.13;5016960;28;20037;-80
2022/06/30 10:56:21;;;;;;;7.55;1.95;;;;;;;17.45;62.03;100612.81;5021578;28;20471;-78
2022/06/30 10:59:07;;;;;;;5.40;1.60;;;;;;;17.88;60.87;100629.09;5050718;28;20298;-79
2022/06/30 11:01:33;;;;;;;2.03;1.20;;;;;;;18.11;59.44;100609.34;5031521;28;20069;-79
2022/06/30 11:03:59;;;;;;;6.38;1.73;;;;;;;18.46;56.64;100627.72;5048244;28;20072;-79
2022/06/30 11:06:55;;;;;;;6.78;1.65;;;;;;;18.86;57.15;100625.25;5048234;28;20492;-80
2022/06/30 11:09:52;;;;;;;5.80;1.92;;;;;;;19.33;54.38;100627.22;5030555;28;20021;-80
2022/06/30 11:12:20;;;;;;;6.05;2.00;;;;;;;19.83;52.59;100606.78;5019626;28;20029;-81
2022/06/30 11:14:56;;;;;;;4.28;1.63;;;;;;;20.16;49.52;100609.66;5015618;28;20071;-80
2022/06/30 11:17:24;;;;;;;3.30;1.90;;;;;;;20.30;48.90;100601.19;5017316;28;20052;-81
2022/06/30 11:20:13;;;;;;;7.43;1.85;;;;;;;20.57;47.51;100623.28;5032192;28;20037;-80
2022/06/30 11:22:40;;;;;;;3.55;1.50;;;;;;;20.18;49.93;100623.88;5015670;28;20048;-81
2022/06/30 11:25:09;;;;;;;7.00;1.55;;;;;;;20.14;50.04;100611.81;5024936;28;20120;-80
2022/06/30 11:27:37;;;;;;;5.75;1.80;;;;;;;20.03;49.88;100625.47;5019219;28;20458;-79
2022/06/30 11:30:09;;;;;;;5.18;1.70;;;;;;;20.18;49.45;100602.03;5043059;28;20048;-80
2022/06/30 11:32:36;;;;;;;3.78;1.90;;;;;;;24.54;40.44;100616.69;5031569;28;20128;-79
2022/06/30 11:35:13;;;;;;;2.53;1.80;;;;;;;27.57;33.88;100606.03;5045103;28;20044;-80